sensor_id;sensor_type;location;lat;lon;timestamp;temperature;humidity
3348;DHT22;1687;49.540;8.574;2023-03-01T00:01:20;2.60;51.20
3348;DHT22;1687;49.540;8.574;2023-03-01T00:03:47;2.60;51.20
3348;DHT22;1687;49.540;8.574;2023-03-01T00:06:13;2.60;51.40
3348;DHT22;1687;49.540;8.574;2023-03-01T00:08:39;2.60;51.30
3348;DHT22;1687;49.540;8.574;2023-03-01T00:11:12;2.60;51.40
3348;DHT22;1687;49.540;8.574;2023-03-01T00:13:41;2.60;51.40
3348;DHT22;1687;49.540;8.574;2023-03-01T00:16:09;2.60;51.50
3348;DHT22;1687;49.540;8.574;2023-03-01T00:18:38;2.70;51.70
3348;DHT22;1687;49.540;8.574;2023-03-01T00:21:04;2.70;51.70
3348;DHT22;1687;49.540;8.574;2023-03-01T00:23:31;2.70;51.70
3348;DHT22;1687;49.540;8.574;2023-03-01T00:25:57;2.70;51.80
3348;DHT22;1687;49.540;8.574;2023-03-01T00:28:23;2.70;51.70
3348;DHT22;1687;49.540;8.574;2023-03-01T00:30:48;2.60;51.60
3348;DHT22;1687;49.540;8.574;2023-03-01T00:33:14;2.60;51.80
3348;DHT22;1687;49.540;8.574;2023-03-01T00:35:40;2.60;51.90
3348;DHT22;1687;49.540;8.574;2023-03-01T00:38:05;2.70;52.10
3348;DHT22;1687;49.540;8.574;2023-03-01T00:40:33;2.70;52.10
3348;DHT22;1687;49.540;8.574;2023-03-01T00:43:00;2.80;52.30
3348;DHT22;1687;49.540;8.574;2023-03-01T00:45:26;2.80;52.30
3348;DHT22;1687;49.540;8.574;2023-03-01T00:47:53;2.80;52.20
3348;DHT22;1687;49.540;8.574;2023-03-01T00:50:19;2.80;52.20
3348;DHT22;1687;49.540;8.574;2023-03-01T00:52:45;2.80;52.20
3348;DHT22;1687;49.540;8.574;2023-03-01T00:55:11;2.80;52.20
3348;DHT22;1687;49.540;8.574;2023-03-01T00:57:37;2.80;52.20
3348;DHT22;1687;49.540;8.574;2023-03-01T01:00:05;2.80;52.30
3348;DHT22;1687;49.540;8.574;2023-03-01T01:02:33;2.80;52.30
3348;DHT22;1687;49.540;8.574;2023-03-01T01:04:59;2.80;52.40
3348;DHT22;1687;49.540;8.574;2023-03-01T01:07:24;2.80;52.30
3348;DHT22;1687;49.540;8.574;2023-03-01T01:09:50;2.80;52.40
3348;DHT22;1687;49.540;8.574;2023-03-01T01:12:16;2.80;52.40
3348;DHT22;1687;49.540;8.574;2023-03-01T01:14:41;2.80;52.30
3348;DHT22;1687;49.540;8.574;2023-03-01T01:17:08;2.80;52.40
3348;DHT22;1687;49.540;8.574;2023-03-01T01:19:34;2.80;52.50
3348;DHT22;1687;49.540;8.574;2023-03-01T01:22:00;2.80;52.40
3348;DHT22;1687;49.540;8.574;2023-03-01T01:24:26;2.70;52.30
3348;DHT22;1687;49.540;8.574;2023-03-01T01:26:51;2.70;52.50
3348;DHT22;1687;49.540;8.574;2023-03-01T01:29:17;2.70;52.60
3348;DHT22;1687;49.540;8.574;2023-03-01T01:31:43;2.70;52.60
3348;DHT22;1687;49.540;8.574;2023-03-01T01:34:14;2.70;52.60
3348;DHT22;1687;49.540;8.574;2023-03-01T01:36:41;2.70;52.70
3348;DHT22;1687;49.540;8.574;2023-03-01T01:39:06;2.70;52.70
3348;DHT22;1687;49.540;8.574;2023-03-01T01:41:32;2.70;52.80
3348;DHT22;1687;49.540;8.574;2023-03-01T01:44:17;2.70;52.80
3348;DHT22;1687;49.540;8.574;2023-03-01T01:46:55;2.70;52.70
3348;DHT22;1687;49.540;8.574;2023-03-01T01:54:40;2.80;53.00
3348;DHT22;1687;49.540;8.574;2023-03-01T01:57:17;2.70;52.80
3348;DHT22;1687;49.540;8.574;2023-03-01T01:59:50;2.70;52.90
3348;DHT22;1687;49.540;8.574;2023-03-01T02:02:19;2.70;52.90
3348;DHT22;1687;49.540;8.574;2023-03-01T02:04:47;2.70;53.00
3348;DHT22;1687;49.540;8.574;2023-03-01T02:07:17;2.70;53.10
3348;DHT22;1687;49.540;8.574;2023-03-01T02:09:49;2.70;53.10
3348;DHT22;1687;49.540;8.574;2023-03-01T02:12:19;2.70;53.10
3348;DHT22;1687;49.540;8.574;2023-03-01T02:14:47;2.70;52.90
3348;DHT22;1687;49.540;8.574;2023-03-01T02:17:15;2.70;53.00
3348;DHT22;1687;49.540;8.574;2023-03-01T02:20:05;2.60;53.00
3348;DHT22;1687;49.540;8.574;2023-03-01T02:22:34;2.60;53.10
3348;DHT22;1687;49.540;8.574;2023-03-01T02:25:05;2.60;53.20
3348;DHT22;1687;49.540;8.574;2023-03-01T02:30:47;2.70;53.40
3348;DHT22;1687;49.540;8.574;2023-03-01T02:33:36;2.70;53.30
3348;DHT22;1687;49.540;8.574;2023-03-01T02:36:14;2.60;53.20
3348;DHT22;1687;49.540;8.574;2023-03-01T02:38:44;2.50;53.10
3348;DHT22;1687;49.540;8.574;2023-03-01T02:41:12;2.50;53.20
3348;DHT22;1687;49.540;8.574;2023-03-01T02:43:40;2.50;53.30
3348;DHT22;1687;49.540;8.574;2023-03-01T02:46:12;2.50;53.30
3348;DHT22;1687;49.540;8.574;2023-03-01T02:48:46;2.40;53.20
3348;DHT22;1687;49.540;8.574;2023-03-01T02:56:56;2.20;53.20
3348;DHT22;1687;49.540;8.574;2023-03-01T02:59:24;2.10;53.20
3348;DHT22;1687;49.540;8.574;2023-03-01T03:01:53;2.00;53.20
3348;DHT22;1687;49.540;8.574;2023-03-01T03:04:19;2.00;53.40
3348;DHT22;1687;49.540;8.574;2023-03-01T03:06:47;2.00;53.40
3348;DHT22;1687;49.540;8.574;2023-03-01T03:09:16;2.00;53.50
3348;DHT22;1687;49.540;8.574;2023-03-01T03:11:42;1.90;53.40
3348;DHT22;1687;49.540;8.574;2023-03-01T03:14:13;2.00;53.60
3348;DHT22;1687;49.540;8.574;2023-03-01T03:16:42;1.90;53.40
3348;DHT22;1687;49.540;8.574;2023-03-01T03:19:10;1.80;53.40
3348;DHT22;1687;49.540;8.574;2023-03-01T03:21:36;1.80;53.50
3348;DHT22;1687;49.540;8.574;2023-03-01T03:24:02;1.80;53.70
3348;DHT22;1687;49.540;8.574;2023-03-01T03:26:28;1.70;53.70
3348;DHT22;1687;49.540;8.574;2023-03-01T03:28:54;1.70;53.60
3348;DHT22;1687;49.540;8.574;2023-03-01T03:31:20;1.60;53.70
3348;DHT22;1687;49.540;8.574;2023-03-01T03:33:46;1.60;53.80
3348;DHT22;1687;49.540;8.574;2023-03-01T03:36:20;1.60;53.70
3348;DHT22;1687;49.540;8.574;2023-03-01T03:38:47;1.50;53.60
3348;DHT22;1687;49.540;8.574;2023-03-01T03:41:13;1.40;53.70
3348;DHT22;1687;49.540;8.574;2023-03-01T03:43:40;1.40;53.90
3348;DHT22;1687;49.540;8.574;2023-03-01T03:46:08;1.40;53.90
3348;DHT22;1687;49.540;8.574;2023-03-01T03:48:40;1.30;54.30
3348;DHT22;1687;49.540;8.574;2023-03-01T03:51:13;1.30;53.90
3348;DHT22;1687;49.540;8.574;2023-03-01T03:53:40;1.20;53.80
3348;DHT22;1687;49.540;8.574;2023-03-01T03:56:06;1.10;53.90
3348;DHT22;1687;49.540;8.574;2023-03-01T04:02:13;1.10;54.30
3348;DHT22;1687;49.540;8.574;2023-03-01T04:04:50;1.10;54.20
3348;DHT22;1687;49.540;8.574;2023-03-01T04:07:16;1.00;54.10
3348;DHT22;1687;49.540;8.574;2023-03-01T04:09:43;1.00;54.10
3348;DHT22;1687;49.540;8.574;2023-03-01T04:12:09;1.00;54.30
3348;DHT22;1687;49.540;8.574;2023-03-01T04:14:35;1.00;54.40
3348;DHT22;1687;49.540;8.574;2023-03-01T04:17:01;1.00;54.50
3348;DHT22;1687;49.540;8.574;2023-03-01T04:19:31;1.00;54.60
3348;DHT22;1687;49.540;8.574;2023-03-01T04:22:02;1.00;54.50
3348;DHT22;1687;49.540;8.574;2023-03-01T04:24:34;1.00;54.60
3348;DHT22;1687;49.540;8.574;2023-03-01T04:27:01;1.10;54.80
3348;DHT22;1687;49.540;8.574;2023-03-01T04:29:27;1.10;54.80
3348;DHT22;1687;49.540;8.574;2023-03-01T04:31:53;1.10;54.90
3348;DHT22;1687;49.540;8.574;2023-03-01T04:34:18;1.20;55.10
3348;DHT22;1687;49.540;8.574;2023-03-01T04:36:44;1.20;55.00
3348;DHT22;1687;49.540;8.574;2023-03-01T04:39:10;1.20;55.00
3348;DHT22;1687;49.540;8.574;2023-03-01T04:41:39;1.30;55.20
3348;DHT22;1687;49.540;8.574;2023-03-01T04:44:06;1.40;55.30
3348;DHT22;1687;49.540;8.574;2023-03-01T04:46:34;1.40;55.30
3348;DHT22;1687;49.540;8.574;2023-03-01T04:49:00;1.50;55.50
3348;DHT22;1687;49.540;8.574;2023-03-01T04:51:26;1.60;55.60
3348;DHT22;1687;49.540;8.574;2023-03-01T04:53:52;1.70;55.60
3348;DHT22;1687;49.540;8.574;2023-03-01T04:56:17;1.80;55.60
3348;DHT22;1687;49.540;8.574;2023-03-01T04:58:44;1.80;55.60
3348;DHT22;1687;49.540;8.574;2023-03-01T05:01:16;1.90;55.70
3348;DHT22;1687;49.540;8.574;2023-03-01T05:03:45;1.90;55.60
3348;DHT22;1687;49.540;8.574;2023-03-01T05:06:17;2.00;55.70
3348;DHT22;1687;49.540;8.574;2023-03-01T05:08:44;2.10;55.70
3348;DHT22;1687;49.540;8.574;2023-03-01T05:11:10;2.10;55.70
3348;DHT22;1687;49.540;8.574;2023-03-01T05:13:37;2.10;55.70
3348;DHT22;1687;49.540;8.574;2023-03-01T05:16:04;2.10;55.70
3348;DHT22;1687;49.540;8.574;2023-03-01T05:18:32;2.20;55.70
3348;DHT22;1687;49.540;8.574;2023-03-01T05:21:10;2.20;55.80
3348;DHT22;1687;49.540;8.574;2023-03-01T05:23:37;2.30;55.80
3348;DHT22;1687;49.540;8.574;2023-03-01T05:26:06;2.30;55.80
3348;DHT22;1687;49.540;8.574;2023-03-01T05:28:32;2.30;55.80
3348;DHT22;1687;49.540;8.574;2023-03-01T05:30:58;2.30;55.80
3348;DHT22;1687;49.540;8.574;2023-03-01T05:33:24;2.40;55.90
3348;DHT22;1687;49.540;8.574;2023-03-01T05:35:51;2.40;55.80
3348;DHT22;1687;49.540;8.574;2023-03-01T05:38:19;2.40;55.90
3348;DHT22;1687;49.540;8.574;2023-03-01T05:40:47;2.50;56.00
3348;DHT22;1687;49.540;8.574;2023-03-01T05:43:15;2.60;56.00
3348;DHT22;1687;49.540;8.574;2023-03-01T05:45:42;2.50;55.80
3348;DHT22;1687;49.540;8.574;2023-03-01T05:48:09;2.60;56.00
3348;DHT22;1687;49.540;8.574;2023-03-01T05:50:38;2.60;55.90
3348;DHT22;1687;49.540;8.574;2023-03-01T05:53:09;2.60;55.90
3348;DHT22;1687;49.540;8.574;2023-03-01T05:55:37;2.70;56.00
3348;DHT22;1687;49.540;8.574;2023-03-01T05:58:04;2.70;56.00
3348;DHT22;1687;49.540;8.574;2023-03-01T06:00:31;2.80;56.10
3348;DHT22;1687;49.540;8.574;2023-03-01T06:02:58;2.80;56.00
3348;DHT22;1687;49.540;8.574;2023-03-01T06:05:25;2.80;56.00
3348;DHT22;1687;49.540;8.574;2023-03-01T06:07:51;2.80;56.00
3348;DHT22;1687;49.540;8.574;2023-03-01T06:10:19;2.80;55.90
3348;DHT22;1687;49.540;8.574;2023-03-01T06:12:47;2.80;56.00
3348;DHT22;1687;49.540;8.574;2023-03-01T06:15:14;2.80;56.00
3348;DHT22;1687;49.540;8.574;2023-03-01T06:17:42;2.80;55.80
3348;DHT22;1687;49.540;8.574;2023-03-01T06:20:15;2.80;55.90
3348;DHT22;1687;49.540;8.574;2023-03-01T06:22:43;2.80;56.00
3348;DHT22;1687;49.540;8.574;2023-03-01T06:25:16;2.80;55.90
3348;DHT22;1687;49.540;8.574;2023-03-01T06:27:43;2.80;56.00
3348;DHT22;1687;49.540;8.574;2023-03-01T06:30:11;2.80;55.90
3348;DHT22;1687;49.540;8.574;2023-03-01T06:32:38;2.80;55.90
3348;DHT22;1687;49.540;8.574;2023-03-01T06:35:08;2.90;56.00
3348;DHT22;1687;49.540;8.574;2023-03-01T06:37:34;2.90;56.00
3348;DHT22;1687;49.540;8.574;2023-03-01T06:40:01;2.90;56.00
3348;DHT22;1687;49.540;8.574;2023-03-01T06:42:34;3.00;56.00
3348;DHT22;1687;49.540;8.574;2023-03-01T06:45:04;3.00;56.10
3348;DHT22;1687;49.540;8.574;2023-03-01T06:47:32;3.00;56.10
3348;DHT22;1687;49.540;8.574;2023-03-01T06:49:59;3.10;56.10
3348;DHT22;1687;49.540;8.574;2023-03-01T06:52:25;3.10;56.20
3348;DHT22;1687;49.540;8.574;2023-03-01T06:54:51;3.20;56.20
3348;DHT22;1687;49.540;8.574;2023-03-01T06:57:17;3.20;56.10
3348;DHT22;1687;49.540;8.574;2023-03-01T06:59:43;3.30;56.00
3348;DHT22;1687;49.540;8.574;2023-03-01T07:02:12;3.30;56.00
3348;DHT22;1687;49.540;8.574;2023-03-01T07:04:39;3.30;56.00
3348;DHT22;1687;49.540;8.574;2023-03-01T07:07:05;3.30;56.60
3348;DHT22;1687;49.540;8.574;2023-03-01T07:09:31;3.30;56.50
3348;DHT22;1687;49.540;8.574;2023-03-01T07:11:57;3.30;56.00
3348;DHT22;1687;49.540;8.574;2023-03-01T07:14:23;3.30;56.00
3348;DHT22;1687;49.540;8.574;2023-03-01T07:16:52;3.30;56.00
3348;DHT22;1687;49.540;8.574;2023-03-01T07:19:19;3.30;55.90
3348;DHT22;1687;49.540;8.574;2023-03-01T07:21:45;3.30;56.10
3348;DHT22;1687;49.540;8.574;2023-03-01T07:24:11;3.30;56.00
3348;DHT22;1687;49.540;8.574;2023-03-01T07:26:37;3.40;56.10
3348;DHT22;1687;49.540;8.574;2023-03-01T07:29:04;3.40;56.10
3348;DHT22;1687;49.540;8.574;2023-03-01T07:31:31;3.40;56.00
3348;DHT22;1687;49.540;8.574;2023-03-01T07:33:57;3.40;55.90
3348;DHT22;1687;49.540;8.574;2023-03-01T07:36:23;3.50;56.20
3348;DHT22;1687;49.540;8.574;2023-03-01T07:38:48;3.50;56.00
3348;DHT22;1687;49.540;8.574;2023-03-01T07:41:14;3.50;56.00
3348;DHT22;1687;49.540;8.574;2023-03-01T07:43:40;3.60;56.10
3348;DHT22;1687;49.540;8.574;2023-03-01T07:46:06;3.60;56.10
3348;DHT22;1687;49.540;8.574;2023-03-01T07:48:32;3.70;56.20
3348;DHT22;1687;49.540;8.574;2023-03-01T07:51:03;3.70;56.10
3348;DHT22;1687;49.540;8.574;2023-03-01T07:53:30;3.80;56.10
3348;DHT22;1687;49.540;8.574;2023-03-01T07:56:01;3.80;56.00
3348;DHT22;1687;49.540;8.574;2023-03-01T07:58:28;3.90;56.30
3348;DHT22;1687;49.540;8.574;2023-03-01T08:00:53;3.90;56.20
3348;DHT22;1687;49.540;8.574;2023-03-01T08:03:19;4.00;56.10
3348;DHT22;1687;49.540;8.574;2023-03-01T08:05:45;3.90;55.80
3348;DHT22;1687;49.540;8.574;2023-03-01T08:08:10;3.90;55.90
3348;DHT22;1687;49.540;8.574;2023-03-01T08:10:36;3.90;55.90
3348;DHT22;1687;49.540;8.574;2023-03-01T08:13:02;3.90;55.80
3348;DHT22;1687;49.540;8.574;2023-03-01T08:15:28;3.90;56.00
3348;DHT22;1687;49.540;8.574;2023-03-01T08:17:53;4.00;56.00
3348;DHT22;1687;49.540;8.574;2023-03-01T08:20:19;4.00;55.90
3348;DHT22;1687;49.540;8.574;2023-03-01T08:22:44;4.10;55.80
3348;DHT22;1687;49.540;8.574;2023-03-01T08:25:10;4.10;55.90
3348;DHT22;1687;49.540;8.574;2023-03-01T08:27:36;4.10;55.80
3348;DHT22;1687;49.540;8.574;2023-03-01T08:30:02;4.00;55.60
3348;DHT22;1687;49.540;8.574;2023-03-01T08:32:28;4.10;55.90
3348;DHT22;1687;49.540;8.574;2023-03-01T08:34:53;4.20;56.00
3348;DHT22;1687;49.540;8.574;2023-03-01T08:37:19;4.30;56.10
3348;DHT22;1687;49.540;8.574;2023-03-01T08:39:45;4.40;56.10
3348;DHT22;1687;49.540;8.574;2023-03-01T08:42:12;4.60;56.20
3348;DHT22;1687;49.540;8.574;2023-03-01T08:44:37;4.60;55.80
3348;DHT22;1687;49.540;8.574;2023-03-01T08:47:03;4.70;55.90
3348;DHT22;1687;49.540;8.574;2023-03-01T08:49:30;4.70;55.90
3348;DHT22;1687;49.540;8.574;2023-03-01T08:51:57;4.80;55.90
3348;DHT22;1687;49.540;8.574;2023-03-01T08:54:23;4.90;56.00
3348;DHT22;1687;49.540;8.574;2023-03-01T08:56:49;5.00;55.90
3348;DHT22;1687;49.540;8.574;2023-03-01T08:59:16;5.00;55.70
3348;DHT22;1687;49.540;8.574;2023-03-01T09:01:42;5.10;56.00
3348;DHT22;1687;49.540;8.574;2023-03-01T09:04:09;5.30;56.00
3348;DHT22;1687;49.540;8.574;2023-03-01T09:06:36;5.40;55.80
3348;DHT22;1687;49.540;8.574;2023-03-01T09:09:03;5.50;55.90
3348;DHT22;1687;49.540;8.574;2023-03-01T09:11:30;5.50;55.60
3348;DHT22;1687;49.540;8.574;2023-03-01T09:13:56;5.50;55.50
3348;DHT22;1687;49.540;8.574;2023-03-01T09:16:22;5.60;55.80
3348;DHT22;1687;49.540;8.574;2023-03-01T09:18:53;5.80;55.80
3348;DHT22;1687;49.540;8.574;2023-03-01T09:21:21;5.90;55.60
3348;DHT22;1687;49.540;8.574;2023-03-01T09:23:48;6.00;55.70
3348;DHT22;1687;49.540;8.574;2023-03-01T09:26:17;6.10;55.80
3348;DHT22;1687;49.540;8.574;2023-03-01T09:28:48;6.30;55.70
3348;DHT22;1687;49.540;8.574;2023-03-01T09:31:17;6.30;55.50
3348;DHT22;1687;49.540;8.574;2023-03-01T09:33:47;6.50;55.70
3348;DHT22;1687;49.540;8.574;2023-03-01T09:36:16;6.60;55.40
3348;DHT22;1687;49.540;8.574;2023-03-01T09:38:44;6.70;55.50
3348;DHT22;1687;49.540;8.574;2023-03-01T09:43:59;6.80;55.40
3348;DHT22;1687;49.540;8.574;2023-03-01T09:46:32;6.80;55.00
3348;DHT22;1687;49.540;8.574;2023-03-01T09:49:12;6.80;55.00
3348;DHT22;1687;49.540;8.574;2023-03-01T09:51:54;6.90;54.90
3348;DHT22;1687;49.540;8.574;2023-03-01T09:54:35;7.00;55.00
3348;DHT22;1687;49.540;8.574;2023-03-01T09:57:13;7.00;54.70
3348;DHT22;1687;49.540;8.574;2023-03-01T10:02:52;7.10;54.80
3348;DHT22;1687;49.540;8.574;2023-03-01T10:10:46;7.50;54.80
3348;DHT22;1687;49.540;8.574;2023-03-01T10:13:24;7.60;54.40
3348;DHT22;1687;49.540;8.574;2023-03-01T10:16:01;7.70;54.50
3348;DHT22;1687;49.540;8.574;2023-03-01T10:18:35;7.80;54.60
3348;DHT22;1687;49.540;8.574;2023-03-01T10:21:16;7.90;54.40
3348;DHT22;1687;49.540;8.574;2023-03-01T10:23:44;7.90;54.20
3348;DHT22;1687;49.540;8.574;2023-03-01T10:29:07;8.20;54.50
3348;DHT22;1687;49.540;8.574;2023-03-01T10:31:41;8.30;54.30
3348;DHT22;1687;49.540;8.574;2023-03-01T10:34:20;8.50;54.20
3348;DHT22;1687;49.540;8.574;2023-03-01T10:37:01;8.40;53.90
3348;DHT22;1687;49.540;8.574;2023-03-01T10:39:34;8.40;53.90
3348;DHT22;1687;49.540;8.574;2023-03-01T10:42:02;8.50;53.90
3348;DHT22;1687;49.540;8.574;2023-03-01T10:44:48;8.60;53.80
3348;DHT22;1687;49.540;8.574;2023-03-01T10:47:21;8.60;53.70
3348;DHT22;1687;49.540;8.574;2023-03-01T10:52:40;8.50;53.30
3348;DHT22;1687;49.540;8.574;2023-03-01T10:55:23;8.50;53.50
3348;DHT22;1687;49.540;8.574;2023-03-01T10:58:16;8.70;53.60
3348;DHT22;1687;49.540;8.574;2023-03-01T11:00:53;8.80;53.40
3348;DHT22;1687;49.540;8.574;2023-03-01T11:03:28;8.90;53.30
3348;DHT22;1687;49.540;8.574;2023-03-01T11:06:01;9.00;53.40
3348;DHT22;1687;49.540;8.574;2023-03-01T11:08:38;9.10;53.20
3348;DHT22;1687;49.540;8.574;2023-03-01T11:14:00;9.10;53.00
3348;DHT22;1687;49.540;8.574;2023-03-01T11:16:34;9.10;52.90
3348;DHT22;1687;49.540;8.574;2023-03-01T11:19:15;9.10;52.80
3348;DHT22;1687;49.540;8.574;2023-03-01T11:22:23;9.10;52.60
3348;DHT22;1687;49.540;8.574;2023-03-01T11:24:49;9.20;52.80
3348;DHT22;1687;49.540;8.574;2023-03-01T11:27:24;9.10;52.30
3348;DHT22;1687;49.540;8.574;2023-03-01T11:30:05;9.10;52.40
3348;DHT22;1687;49.540;8.574;2023-03-01T11:36:23;9.20;52.60
3348;DHT22;1687;49.540;8.574;2023-03-01T11:38:51;9.40;52.50
3348;DHT22;1687;49.540;8.574;2023-03-01T11:41:23;9.40;52.40
3348;DHT22;1687;49.540;8.574;2023-03-01T11:43:57;9.40;52.00
3348;DHT22;1687;49.540;8.574;2023-03-01T11:52:05;9.30;52.20
3348;DHT22;1687;49.540;8.574;2023-03-01T11:54:47;9.50;52.20
3348;DHT22;1687;49.540;8.574;2023-03-01T11:57:28;9.60;52.10
3348;DHT22;1687;49.540;8.574;2023-03-01T12:00:16;9.70;52.30
3348;DHT22;1687;49.540;8.574;2023-03-01T12:09:12;10.00;51.20
3348;DHT22;1687;49.540;8.574;2023-03-01T12:11:57;10.00;50.90
3348;DHT22;1687;49.540;8.574;2023-03-01T12:25:49;9.90;51.30
3348;DHT22;1687;49.540;8.574;2023-03-01T12:28:36;9.90;51.50
3348;DHT22;1687;49.540;8.574;2023-03-01T12:34:49;9.90;51.40
3348;DHT22;1687;49.540;8.574;2023-03-01T12:37:43;9.90;51.20
3348;DHT22;1687;49.540;8.574;2023-03-01T12:51:56;9.40;50.70
3348;DHT22;1687;49.540;8.574;2023-03-01T12:54:30;9.40;50.80
3348;DHT22;1687;49.540;8.574;2023-03-01T12:57:02;9.50;50.90
3348;DHT22;1687;49.540;8.574;2023-03-01T13:02:24;9.70;50.70
3348;DHT22;1687;49.540;8.574;2023-03-01T13:05:18;9.70;50.80
3348;DHT22;1687;49.540;8.574;2023-03-01T13:13:19;10.00;49.90
3348;DHT22;1687;49.540;8.574;2023-03-01T13:15:48;10.00;49.80
3348;DHT22;1687;49.540;8.574;2023-03-01T13:26:11;10.00;49.60
3348;DHT22;1687;49.540;8.574;2023-03-01T13:36:47;10.20;49.50
3348;DHT22;1687;49.540;8.574;2023-03-01T13:41:51;10.20;49.40
3348;DHT22;1687;49.540;8.574;2023-03-01T13:46:59;10.30;49.30
3348;DHT22;1687;49.540;8.574;2023-03-01T13:50:06;10.30;49.30
3348;DHT22;1687;49.540;8.574;2023-03-01T13:52:50;10.30;49.00
3348;DHT22;1687;49.540;8.574;2023-03-01T13:55:22;10.30;49.20
3348;DHT22;1687;49.540;8.574;2023-03-01T13:57:56;10.30;49.00
3348;DHT22;1687;49.540;8.574;2023-03-01T14:00:31;10.40;49.10
3348;DHT22;1687;49.540;8.574;2023-03-01T14:03:17;10.50;49.20
3348;DHT22;1687;49.540;8.574;2023-03-01T14:08:27;10.70;49.10
3348;DHT22;1687;49.540;8.574;2023-03-01T14:14:09;10.90;49.00
3348;DHT22;1687;49.540;8.574;2023-03-01T14:17:30;10.90;48.80
3348;DHT22;1687;49.540;8.574;2023-03-01T14:22:45;11.00;48.70
3348;DHT22;1687;49.540;8.574;2023-03-01T14:25:32;11.10;48.70
3348;DHT22;1687;49.540;8.574;2023-03-01T14:28:04;11.20;48.70
3348;DHT22;1687;49.540;8.574;2023-03-01T14:30:51;11.20;48.50
3348;DHT22;1687;49.540;8.574;2023-03-01T14:33:30;11.40;48.60
3348;DHT22;1687;49.540;8.574;2023-03-01T14:36:00;11.50;48.60
3348;DHT22;1687;49.540;8.574;2023-03-01T14:43:46;11.90;48.20
3348;DHT22;1687;49.540;8.574;2023-03-01T14:46:25;12.00;48.30
3348;DHT22;1687;49.540;8.574;2023-03-01T14:48:57;12.20;48.40
3348;DHT22;1687;49.540;8.574;2023-03-01T14:51:28;12.50;48.50
3348;DHT22;1687;49.540;8.574;2023-03-01T14:53:54;12.70;48.20
3348;DHT22;1687;49.540;8.574;2023-03-01T14:56:20;13.10;48.40
3348;DHT22;1687;49.540;8.574;2023-03-01T14:58:46;13.70;48.50
3348;DHT22;1687;49.540;8.574;2023-03-01T15:01:18;14.40;48.40
3348;DHT22;1687;49.540;8.574;2023-03-01T15:03:48;15.30;48.50
3348;DHT22;1687;49.540;8.574;2023-03-01T15:06:20;16.10;48.30
3348;DHT22;1687;49.540;8.574;2023-03-01T15:08:54;17.00;48.40
3348;DHT22;1687;49.540;8.574;2023-03-01T15:11:23;17.80;48.10
3348;DHT22;1687;49.540;8.574;2023-03-01T15:13:51;18.30;47.10
3348;DHT22;1687;49.540;8.574;2023-03-01T15:16:21;18.60;46.60
3348;DHT22;1687;49.540;8.574;2023-03-01T15:18:52;19.10;47.30
3348;DHT22;1687;49.540;8.574;2023-03-01T15:21:25;20.00;47.50
3348;DHT22;1687;49.540;8.574;2023-03-01T15:23:57;20.90;47.40
3348;DHT22;1687;49.540;8.574;2023-03-01T15:26:49;21.40;46.90
3348;DHT22;1687;49.540;8.574;2023-03-01T15:29:25;21.60;46.60
3348;DHT22;1687;49.540;8.574;2023-03-01T15:31:58;22.00;46.20
3348;DHT22;1687;49.540;8.574;2023-03-01T15:34:34;22.30;46.30
3348;DHT22;1687;49.540;8.574;2023-03-01T15:37:03;22.70;45.80
3348;DHT22;1687;49.540;8.574;2023-03-01T15:39:38;23.00;45.60
3348;DHT22;1687;49.540;8.574;2023-03-01T15:42:12;22.90;45.60
3348;DHT22;1687;49.540;8.574;2023-03-01T15:44:41;23.10;45.10
3348;DHT22;1687;49.540;8.574;2023-03-01T15:47:29;23.20;44.80
3348;DHT22;1687;49.540;8.574;2023-03-01T15:49:57;23.30;43.90
3348;DHT22;1687;49.540;8.574;2023-03-01T15:52:29;22.20;43.10
3348;DHT22;1687;49.540;8.574;2023-03-01T15:55:04;20.50;42.60
3348;DHT22;1687;49.540;8.574;2023-03-01T15:57:31;18.80;42.10
3348;DHT22;1687;49.540;8.574;2023-03-01T15:59:57;17.50;42.00
3348;DHT22;1687;49.540;8.574;2023-03-01T16:02:23;16.40;41.80
3348;DHT22;1687;49.540;8.574;2023-03-01T16:04:50;15.70;42.00
3348;DHT22;1687;49.540;8.574;2023-03-01T16:07:16;15.10;41.90
3348;DHT22;1687;49.540;8.574;2023-03-01T16:09:42;14.60;41.80
3348;DHT22;1687;49.540;8.574;2023-03-01T16:12:14;14.20;41.80
3348;DHT22;1687;49.540;8.574;2023-03-01T16:14:42;13.70;41.60
3348;DHT22;1687;49.540;8.574;2023-03-01T16:17:07;13.40;41.70
3348;DHT22;1687;49.540;8.574;2023-03-01T16:19:35;13.20;41.80
3348;DHT22;1687;49.540;8.574;2023-03-01T16:22:03;13.00;41.70
3348;DHT22;1687;49.540;8.574;2023-03-01T16:24:29;12.70;41.70
3348;DHT22;1687;49.540;8.574;2023-03-01T16:26:55;12.60;41.80
3348;DHT22;1687;49.540;8.574;2023-03-01T16:29:21;12.40;41.90
3348;DHT22;1687;49.540;8.574;2023-03-01T16:31:46;12.30;41.90
3348;DHT22;1687;49.540;8.574;2023-03-01T16:34:13;12.20;41.80
3348;DHT22;1687;49.540;8.574;2023-03-01T16:36:38;12.00;41.80
3348;DHT22;1687;49.540;8.574;2023-03-01T16:39:04;11.80;41.80
3348;DHT22;1687;49.540;8.574;2023-03-01T16:41:30;11.70;41.90
3348;DHT22;1687;49.540;8.574;2023-03-01T16:43:56;11.50;41.90
3348;DHT22;1687;49.540;8.574;2023-03-01T16:46:26;11.50;42.10
3348;DHT22;1687;49.540;8.574;2023-03-01T16:48:54;11.30;42.00
3348;DHT22;1687;49.540;8.574;2023-03-01T16:51:21;11.20;42.00
3348;DHT22;1687;49.540;8.574;2023-03-01T16:53:48;11.10;42.00
3348;DHT22;1687;49.540;8.574;2023-03-01T16:56:15;11.00;42.00
3348;DHT22;1687;49.540;8.574;2023-03-01T16:58:42;10.80;42.00
3348;DHT22;1687;49.540;8.574;2023-03-01T17:01:18;10.70;42.10
3348;DHT22;1687;49.540;8.574;2023-03-01T17:03:46;10.60;42.30
3348;DHT22;1687;49.540;8.574;2023-03-01T17:06:15;10.50;42.30
3348;DHT22;1687;49.540;8.574;2023-03-01T17:08:42;10.40;42.30
3348;DHT22;1687;49.540;8.574;2023-03-01T17:11:13;10.30;42.30
3348;DHT22;1687;49.540;8.574;2023-03-01T17:13:40;10.20;42.30
3348;DHT22;1687;49.540;8.574;2023-03-01T17:16:08;10.10;42.40
3348;DHT22;1687;49.540;8.574;2023-03-01T17:18:36;10.00;42.40
3348;DHT22;1687;49.540;8.574;2023-03-01T17:21:02;9.90;43.30
3348;DHT22;1687;49.540;8.574;2023-03-01T17:23:30;9.80;43.30
3348;DHT22;1687;49.540;8.574;2023-03-01T17:25:57;9.70;43.40
3348;DHT22;1687;49.540;8.574;2023-03-01T17:28:25;9.60;43.50
3348;DHT22;1687;49.540;8.574;2023-03-01T17:30:53;9.50;43.60
3348;DHT22;1687;49.540;8.574;2023-03-01T17:33:20;9.40;43.60
3348;DHT22;1687;49.540;8.574;2023-03-01T17:35:46;9.30;43.60
3348;DHT22;1687;49.540;8.574;2023-03-01T17:38:13;9.10;43.50
3348;DHT22;1687;49.540;8.574;2023-03-01T17:40:43;8.90;43.60
3348;DHT22;1687;49.540;8.574;2023-03-01T17:43:13;8.80;43.80
3348;DHT22;1687;49.540;8.574;2023-03-01T17:45:41;8.70;43.90
3348;DHT22;1687;49.540;8.574;2023-03-01T17:48:13;8.60;44.00
3348;DHT22;1687;49.540;8.574;2023-03-01T17:50:40;8.50;44.20
3348;DHT22;1687;49.540;8.574;2023-03-01T17:53:08;8.40;44.30
3348;DHT22;1687;49.540;8.574;2023-03-01T17:55:35;8.30;44.40
3348;DHT22;1687;49.540;8.574;2023-03-01T17:58:02;8.20;44.50
3348;DHT22;1687;49.540;8.574;2023-03-01T18:00:28;8.10;44.70
3348;DHT22;1687;49.540;8.574;2023-03-01T18:02:55;8.10;44.80
3348;DHT22;1687;49.540;8.574;2023-03-01T18:05:20;7.90;44.80
3348;DHT22;1687;49.540;8.574;2023-03-01T18:07:46;7.90;44.90
3348;DHT22;1687;49.540;8.574;2023-03-01T18:10:12;7.80;45.00
3348;DHT22;1687;49.540;8.574;2023-03-01T18:12:37;7.80;45.10
3348;DHT22;1687;49.540;8.574;2023-03-01T18:15:06;7.70;45.30
3348;DHT22;1687;49.540;8.574;2023-03-01T18:17:32;7.60;45.30
3348;DHT22;1687;49.540;8.574;2023-03-01T18:19:58;7.60;45.40
3348;DHT22;1687;49.540;8.574;2023-03-01T18:22:24;7.50;45.50
3348;DHT22;1687;49.540;8.574;2023-03-01T18:24:50;7.50;45.80
3348;DHT22;1687;49.540;8.574;2023-03-01T18:27:16;7.50;45.90
3348;DHT22;1687;49.540;8.574;2023-03-01T18:29:42;7.40;46.00
3348;DHT22;1687;49.540;8.574;2023-03-01T18:32:08;7.40;46.10
3348;DHT22;1687;49.540;8.574;2023-03-01T18:34:33;7.40;46.10